ユジノサハリンスク の空港の天気 - METARとTAF

ホムトヴォ空港(ユジノサハリンスク) ( UHSS / UUS ) - ロシア ユジノサハリンスク
飛行場実況気象(Metar)
観測時間02/28 10:30 +10 (02/28 00:30 UTC)
風向・風速北 1m/s
視程10km以上
天気現象
なし
気温-9℃
湿度73%
気圧1024hPa
METARUHSS 280030Z 36001MPS 9999 NSC M09/M13 Q1024 R01/810270 NOSIG RMK QFE767/1022
過去の天気等 Google飛行場航空写真 Wunderground天気予報

過去48時間のMETAR

飛行場予報(TAF)
発表時間: 2/28 09:00 +10 (2/27 23:00 UTC)
予報対象時間: 28日10時 +10 ~ 1日16時 +10
風向・風速南南西 3m/s
視程10km以上
全天の8割程度の積乱雲 雲底高度 610m
全天の8割程度の雲 雲底高度 3,050m
28日16時 +10 ~ 28日19時 +10 に徐々に
視程3,000m
天気現象もや
28日22時 +10 ~ 1日1時 +10 に徐々に
視程400m
天気現象氷霧
全天の8割程度の雲 雲底高度 60m
全天の8割程度の積乱雲 雲底高度 610m
1日4時 +10 ~ 1日7時 +10 に徐々に
視程1,200m
天気現象しゅう雨雪 もや
全天の8割程度の雲 雲底高度 90m
全天の8割程度の積乱雲 雲底高度 610m
1日7時 +10 ~ 1日10時 +10 に徐々に
風向・風速南西 6m/s
TAF UHSS 272300Z 2800/0106 20003MPS 9999 BKN020CB BKN100
BECMG 2806/2809 3000 BR
BECMG 2812/2815 0400 FZFG BKN002 BKN020CB
BECMG 2818/2821 1200 SHRASN BR BKN003 BKN020CB
BECMG 2821/2824 22006MPS